createdAt,value
2023-01-19T00:02:03.795Z,93786.38
2023-01-19T00:05:07.529Z,93793.38
2023-01-19T00:08:15.665Z,93810.53
2023-01-19T00:11:19.245Z,93824.06
2023-01-19T00:14:22.587Z,93829.00
2023-01-19T00:17:25.520Z,93837.44
2023-01-19T00:20:29.071Z,93838.31
2023-01-19T00:23:32.225Z,93849.28
2023-01-19T00:26:35.422Z,93857.91
2023-01-19T00:29:38.285Z,93862.59
2023-01-19T00:32:41.258Z,93867.03
2023-01-19T00:35:44.666Z,93884.84
2023-01-19T00:38:47.947Z,93882.88
2023-01-19T00:42:09.137Z,93892.00
2023-01-19T00:45:20.334Z,93903.09
2023-01-19T00:48:24.334Z,93901.78
2023-01-19T00:51:28.257Z,93906.19
2023-01-19T00:54:31.911Z,93913.81
2023-01-19T00:57:35.994Z,93924.94
2023-01-19T01:00:39.589Z,93923.69
2023-01-19T01:03:43.678Z,93922.75
2023-01-19T01:06:47.480Z,93933.84
2023-01-19T01:09:52.524Z,93935.09
2023-01-19T01:12:58.027Z,93938.47
2023-01-19T01:16:19.939Z,93949.16
2023-01-19T01:19:24.294Z,93960.66
2023-01-19T01:22:27.990Z,93957.81
2023-01-19T01:25:32.458Z,93964.47
2023-01-19T01:28:35.785Z,93978.94
2023-01-19T01:31:39.820Z,93976.72
2023-01-19T01:34:43.688Z,93983.72
2023-01-19T01:37:47.750Z,93990.38
2023-01-19T01:40:51.401Z,93996.97
2023-01-19T01:44:03.056Z,93988.97
2023-01-19T01:47:06.713Z,93988.19
2023-01-19T01:50:18.784Z,93995.88
2023-01-19T01:53:21.760Z,93982.06
2023-01-19T01:56:30.679Z,93994.59
2023-01-19T01:59:41.033Z,93996.66
2023-01-19T02:02:51.992Z,93994.91
2023-01-19T02:05:59.773Z,94007.53
2023-01-19T02:09:28.052Z,94010.59
2023-01-19T02:12:49.195Z,94025.50
2023-01-19T02:16:18.745Z,94025.53
2023-01-19T02:19:32.612Z,94023.03
2023-01-19T02:22:47.541Z,94027.03
2023-01-19T02:25:51.378Z,94020.34
2023-01-19T02:29:04.689Z,94017.84
2023-01-19T02:32:08.459Z,94019.84
2023-01-19T02:35:13.617Z,94029.00
2023-01-19T02:38:19.858Z,94025.28
2023-01-19T02:41:28.977Z,94025.53
2023-01-19T02:44:34.331Z,94034.22
2023-01-19T02:47:41.093Z,94021.28
2023-01-19T02:50:48.046Z,94026.28
2023-01-19T02:54:04.092Z,94035.94
2023-01-19T02:57:13.541Z,94030.25
2023-01-19T03:00:31.032Z,94038.16
2023-01-19T03:04:01.117Z,94050.81
2023-01-19T03:07:22.133Z,94048.25
2023-01-19T03:10:37.233Z,94061.97
2023-01-19T03:14:01.750Z,94056.41
2023-01-19T03:17:07.937Z,94047.13
2023-01-19T03:20:15.075Z,94045.19
2023-01-19T03:26:59.569Z,94049.44
2023-01-19T03:30:09.002Z,94047.88
2023-01-19T03:33:33.652Z,94031.56
2023-01-19T03:36:43.370Z,94037.88
2023-01-19T03:39:46.398Z,94042.72
2023-01-19T03:42:51.424Z,94045.72
2023-01-19T03:45:57.375Z,94039.97
2023-01-19T03:49:01.777Z,94056.28
2023-01-19T03:52:05.928Z,94041.53
2023-01-19T03:55:10.874Z,94051.00
2023-01-19T03:58:14.453Z,94033.19
2023-01-19T04:01:21.584Z,94031.78
2023-01-19T04:04:26.127Z,94041.75
2023-01-19T04:07:30.073Z,94034.72
2023-01-19T04:10:34.399Z,94035.25
2023-01-19T04:13:39.690Z,94030.06
2023-01-19T04:16:42.593Z,94023.63
2023-01-19T04:19:46.334Z,94025.91
2023-01-19T04:22:50.200Z,94024.97
2023-01-19T04:25:59.808Z,94017.22
2023-01-19T04:29:02.854Z,94023.47
2023-01-19T04:32:07.155Z,94029.47
2023-01-19T04:35:10.952Z,94019.09
2023-01-19T04:38:14.653Z,94021.81
2023-01-19T04:41:18.872Z,94021.56
2023-01-19T04:44:22.922Z,94011.41
2023-01-19T04:47:26.984Z,94012.88
2023-01-19T04:50:31.143Z,94011.16
2023-01-19T04:53:34.947Z,94004.47
2023-01-19T04:56:38.412Z,94004.97
2023-01-19T04:59:43.524Z,94013.13
2023-01-19T05:03:11.683Z,94001.75
2023-01-19T05:06:14.631Z,94010.41
2023-01-19T05:09:17.624Z,94014.09
2023-01-19T05:12:21.091Z,94011.66
2023-01-19T05:15:24.679Z,94012.13
2023-01-19T05:18:30.494Z,94013.16
2023-01-19T05:21:33.546Z,94015.63
2023-01-19T05:24:37.149Z,94011.63
2023-01-19T05:27:40.155Z,94025.75
2023-01-19T05:30:43.673Z,94031.50
2023-01-19T05:33:48.774Z,94037.91
2023-01-19T05:36:52.585Z,94038.88
2023-01-19T05:39:55.500Z,94033.69
2023-01-19T05:43:02.324Z,94034.69
2023-01-19T05:46:06.013Z,94045.09
2023-01-19T05:49:09.716Z,94037.44
2023-01-19T05:52:13.379Z,94041.59
2023-01-19T05:55:17.164Z,94052.25
2023-01-19T05:58:20.523Z,94045.56
2023-01-19T06:01:24.590Z,94043.09
2023-01-19T06:04:27.868Z,94037.41
2023-01-19T06:07:32.339Z,94018.81
2023-01-19T06:10:35.249Z,94030.00
2023-01-19T06:13:41.348Z,94035.19
2023-01-19T06:16:45.624Z,94046.31
2023-01-19T06:19:49.203Z,94053.75
2023-01-19T06:22:52.864Z,94044.59
2023-01-19T06:25:55.890Z,94051.03
2023-01-19T06:29:00.037Z,94053.22
2023-01-19T06:32:03.032Z,94058.69
2023-01-19T06:35:08.376Z,94063.16
2023-01-19T06:38:11.381Z,94058.13
2023-01-19T06:41:15.087Z,94056.38
2023-01-19T06:44:18.395Z,94065.28
2023-01-19T06:47:21.205Z,94069.19
2023-01-19T06:50:24.191Z,94071.00
2023-01-19T06:53:28.529Z,94083.63
2023-01-19T06:56:31.528Z,94085.38
2023-01-19T06:59:34.407Z,94092.34
2023-01-19T07:02:37.646Z,94097.00
2023-01-19T07:05:40.634Z,94095.25
2023-01-19T07:08:44.119Z,94094.94
2023-01-19T07:11:47.879Z,94097.69
2023-01-19T07:14:52.306Z,94105.91
2023-01-19T07:17:59.724Z,94094.97
2023-01-19T07:21:05.884Z,94096.34
2023-01-19T07:24:09.937Z,94099.28
2023-01-19T07:27:13.620Z,94097.06
2023-01-19T07:30:42.991Z,94096.75
2023-01-19T07:33:47.722Z,94104.94
2023-01-19T07:36:51.752Z,94109.41
2023-01-19T07:39:54.657Z,94119.75
2023-01-19T07:42:59.013Z,94119.34
2023-01-19T07:46:04.681Z,94132.69
2023-01-19T07:49:08.957Z,94128.69
2023-01-19T07:52:11.813Z,94135.97
2023-01-19T07:55:14.855Z,94145.56
2023-01-19T07:58:17.685Z,94141.59
2023-01-19T08:01:20.672Z,94143.34
2023-01-19T08:04:24.986Z,94142.56
2023-01-19T08:07:28.546Z,94155.09
2023-01-19T08:10:35.400Z,94153.94
2023-01-19T08:13:39.404Z,94163.19
2023-01-19T08:16:42.393Z,94164.56
2023-01-19T08:19:46.089Z,94157.06
2023-01-19T08:22:48.960Z,94162.78
2023-01-19T08:25:51.984Z,94150.28
2023-01-19T08:28:55.395Z,94149.09
2023-01-19T08:32:00.705Z,94140.13
2023-01-19T08:35:04.925Z,94138.78
2023-01-19T08:38:09.757Z,94154.94
2023-01-19T08:41:13.231Z,94150.59
2023-01-19T08:44:16.791Z,94154.63
2023-01-19T08:47:20.498Z,94142.88
2023-01-19T08:50:24.277Z,94149.63
2023-01-19T08:53:27.504Z,94157.50
2023-01-19T08:56:30.447Z,94160.47
2023-01-19T08:59:33.727Z,94166.22
2023-01-19T09:02:38.298Z,94165.72
2023-01-19T09:05:42.523Z,94181.50
2023-01-19T09:08:45.995Z,94185.56
2023-01-19T09:11:49.963Z,94185.44
2023-01-19T09:14:52.978Z,94178.50
2023-01-19T09:17:56.300Z,94191.94
2023-01-19T09:21:00.312Z,94188.94
2023-01-19T09:24:04.599Z,94188.44
2023-01-19T09:27:08.395Z,94203.13
2023-01-19T09:30:13.196Z,94202.47
2023-01-19T09:33:18.442Z,94205.78
2023-01-19T09:36:22.516Z,94215.63
2023-01-19T09:39:25.438Z,94214.69
2023-01-19T09:43:05.565Z,94215.09
2023-01-19T09:46:20.011Z,94214.03
2023-01-19T09:49:37.470Z,94221.13
2023-01-19T09:52:45.216Z,94212.69
2023-01-19T09:55:48.159Z,94218.00
2023-01-19T09:58:52.377Z,94219.09
2023-01-19T10:01:55.726Z,94220.06
2023-01-19T10:05:00.853Z,94224.53
2023-01-19T10:08:26.489Z,94231.06
2023-01-19T10:11:52.738Z,94226.16
2023-01-19T10:15:23.736Z,94232.78
2023-01-19T10:18:46.747Z,94241.81
2023-01-19T10:21:54.460Z,94243.25
2023-01-19T10:25:08.926Z,94248.06
2023-01-19T10:28:14.039Z,94250.41
2023-01-19T10:31:21.419Z,94248.28
2023-01-19T10:34:25.225Z,94249.31
2023-01-19T10:37:30.595Z,94252.22
2023-01-19T10:41:01.583Z,94250.88
2023-01-19T10:44:06.702Z,94253.63
2023-01-19T10:47:21.148Z,94253.44
2023-01-19T10:50:33.617Z,94259.94
2023-01-19T10:53:37.960Z,94267.88
2023-01-19T10:56:42.195Z,94265.19
2023-01-19T10:59:45.002Z,94273.81
2023-01-19T11:02:52.757Z,94265.53
2023-01-19T11:06:15.928Z,94258.81
2023-01-19T11:09:21.966Z,94261.09
2023-01-19T11:12:25.234Z,94265.41
2023-01-19T11:15:57.982Z,94274.34
2023-01-19T11:19:03.281Z,94261.50
2023-01-19T11:22:23.563Z,94258.88
2023-01-19T11:25:31.767Z,94257.38
2023-01-19T11:28:46.902Z,94262.75
2023-01-19T11:31:50.842Z,94269.91
2023-01-19T11:34:54.546Z,94268.22
2023-01-19T11:38:23.639Z,94264.59
2023-01-19T11:41:37.808Z,94259.00
2023-01-19T11:44:52.024Z,94262.94
2023-01-19T11:47:57.719Z,94267.88
2023-01-19T11:51:05.304Z,94263.81
2023-01-19T11:54:20.076Z,94271.06
2023-01-19T11:57:23.117Z,94277.25
2023-01-19T12:00:45.247Z,94276.25
2023-01-19T12:04:16.185Z,94269.75
2023-01-19T12:07:24.442Z,94268.13
2023-01-19T12:10:32.201Z,94269.44
2023-01-19T12:13:36.337Z,94278.84
2023-01-19T12:16:42.256Z,94274.28
2023-01-19T12:19:55.124Z,94271.47
2023-01-19T12:23:03.881Z,94267.03
2023-01-19T12:26:31.486Z,94265.13
2023-01-19T12:29:37.571Z,94262.88
2023-01-19T12:32:40.447Z,94268.00
2023-01-19T12:36:01.760Z,94254.84
2023-01-19T12:39:05.342Z,94255.84
2023-01-19T12:42:19.373Z,94255.44
2023-01-19T12:45:29.469Z,94257.84
2023-01-19T12:48:33.794Z,94254.81
2023-01-19T12:51:37.721Z,94255.88
2023-01-19T12:55:03.752Z,94254.91
2023-01-19T12:58:15.691Z,94252.38
2023-01-19T13:01:22.222Z,94248.13
2023-01-19T13:04:34.133Z,94245.63
2023-01-19T13:08:03.594Z,94241.03
2023-01-19T13:11:06.966Z,94243.44
2023-01-19T13:14:36.457Z,94240.97
2023-01-19T13:17:51.941Z,94239.47
2023-01-19T13:21:01.062Z,94235.09
2023-01-19T13:24:07.324Z,94228.69
2023-01-19T13:27:14.385Z,94230.53
2023-01-19T13:30:20.195Z,94231.78
2023-01-19T13:33:27.679Z,94232.44
2023-01-19T13:36:38.059Z,94223.47
2023-01-19T13:39:45.234Z,94225.56
2023-01-19T13:42:50.450Z,94225.78
2023-01-19T13:45:55.919Z,94218.78
2023-01-19T13:49:14.295Z,94224.25
2023-01-19T13:52:22.757Z,94225.69
2023-01-19T13:55:31.624Z,94215.94
2023-01-19T13:58:35.775Z,94213.66
2023-01-19T14:01:43.755Z,94206.38
2023-01-19T14:04:47.351Z,94196.78
2023-01-19T14:08:03.434Z,94194.91
2023-01-19T14:11:08.109Z,94185.66
2023-01-19T14:14:28.636Z,94182.81
2023-01-19T14:17:33.518Z,94184.66
2023-01-19T14:20:39.273Z,94180.47
2023-01-19T14:23:50.751Z,94174.56
2023-01-19T14:26:56.738Z,94171.16
2023-01-19T14:30:21.217Z,94167.81
2023-01-19T14:33:40.940Z,94165.91
2023-01-19T14:36:43.925Z,94162.34
2023-01-19T14:40:01.590Z,94158.88
2023-01-19T14:43:07.083Z,94149.84
2023-01-19T14:46:19.515Z,94143.72
2023-01-19T14:49:38.589Z,94138.72
2023-01-19T14:52:43.835Z,94136.56
2023-01-19T14:55:51.901Z,94142.56
2023-01-19T14:58:57.045Z,94134.16
2023-01-19T15:02:00.684Z,94125.78
2023-01-19T15:05:05.119Z,94111.06
2023-01-19T15:08:12.979Z,94112.53
2023-01-19T15:11:33.589Z,94102.28
2023-01-19T15:14:36.435Z,94104.63
2023-01-19T15:17:40.521Z,94100.81
2023-01-19T15:20:44.421Z,94102.97
2023-01-19T15:23:48.868Z,94101.31
2023-01-19T15:26:52.422Z,94095.22
2023-01-19T15:29:55.811Z,94089.31
2023-01-19T15:32:59.565Z,94089.78
2023-01-19T15:36:02.632Z,94100.91
2023-01-19T15:39:05.644Z,94098.34
2023-01-19T15:42:17.517Z,94096.09
2023-01-19T15:45:34.293Z,94089.81
2023-01-19T15:48:37.114Z,94087.69
2023-01-19T15:51:39.919Z,94079.34
2023-01-19T15:54:43.073Z,94078.03
2023-01-19T15:57:46.039Z,94073.09
2023-01-19T16:00:57.460Z,94067.44
2023-01-19T16:04:02.737Z,94074.41
2023-01-19T16:07:05.926Z,94068.72
2023-01-19T16:10:10.135Z,94059.47
2023-01-19T16:13:13.421Z,94072.16
2023-01-19T16:16:19.936Z,94060.41
2023-01-19T16:19:23.835Z,94062.13
2023-01-19T16:22:26.647Z,94059.47
2023-01-19T16:25:31.592Z,94052.63
2023-01-19T16:28:38.763Z,94050.94
2023-01-19T16:31:43.951Z,94049.25
2023-01-19T16:35:03.552Z,94053.88
2023-01-19T16:38:06.451Z,94055.66
2023-01-19T16:41:11.076Z,94051.94
2023-01-19T16:44:16.112Z,94050.13
2023-01-19T16:47:19.145Z,94045.06
2023-01-19T16:50:22.141Z,94046.28
2023-01-19T16:53:25.989Z,94033.53
2023-01-19T16:56:29.979Z,94025.31
2023-01-19T16:59:32.867Z,94027.75
2023-01-19T17:02:35.806Z,94022.72
2023-01-19T17:05:39.768Z,94023.09
2023-01-19T17:08:43.565Z,94015.84
2023-01-19T17:11:47.324Z,94012.47
2023-01-19T17:14:50.257Z,94013.03
2023-01-19T17:17:53.283Z,94008.41
2023-01-19T17:21:01.771Z,94003.16
2023-01-19T17:24:05.822Z,94002.22
2023-01-19T17:27:09.078Z,94001.09
2023-01-19T17:30:13.023Z,94007.88
2023-01-19T17:33:16.252Z,93999.41
2023-01-19T17:36:22.906Z,94001.66
2023-01-19T17:39:25.769Z,94000.56
2023-01-19T17:42:28.694Z,94002.63
2023-01-19T17:45:31.977Z,94004.31
2023-01-19T17:48:35.228Z,94003.19
2023-01-19T17:51:38.824Z,94008.41
2023-01-19T17:54:42.164Z,94004.88
2023-01-19T17:57:45.084Z,94008.94
2023-01-19T18:00:48.001Z,94009.31
2023-01-19T18:03:51.656Z,93998.81
2023-01-19T18:06:54.558Z,93994.13
2023-01-19T18:10:00.163Z,93980.63
2023-01-19T18:13:04.825Z,93996.38
2023-01-19T18:16:14.464Z,93990.72
2023-01-19T18:19:17.995Z,93990.38
2023-01-19T18:22:21.162Z,93995.63
2023-01-19T18:25:24.161Z,93987.75
2023-01-19T18:28:28.770Z,93988.28
2023-01-19T18:31:31.808Z,93990.56
2023-01-19T18:34:34.829Z,93983.25
2023-01-19T18:37:38.453Z,93984.72
2023-01-19T18:40:42.271Z,93977.19
2023-01-19T18:43:47.192Z,93981.06
2023-01-19T18:46:50.882Z,93979.28
2023-01-19T18:49:53.756Z,93976.25
2023-01-19T18:52:57.524Z,93977.22
2023-01-19T18:56:03.005Z,93964.34
2023-01-19T18:59:06.636Z,93970.63
2023-01-19T19:02:12.235Z,93962.88
2023-01-19T19:05:15.992Z,93956.66
2023-01-19T19:08:19.600Z,93955.22
2023-01-19T19:11:24.821Z,93959.19
2023-01-19T19:14:28.754Z,93949.75
2023-01-19T19:17:32.664Z,93947.97
2023-01-19T19:20:39.616Z,93959.84
2023-01-19T19:23:43.309Z,93957.59
2023-01-19T19:26:48.910Z,93950.47
2023-01-19T19:29:52.704Z,93948.94
2023-01-19T19:32:57.303Z,93951.19
2023-01-19T19:36:00.663Z,93953.44
2023-01-19T19:39:04.869Z,93951.53
2023-01-19T19:42:08.416Z,93956.59
2023-01-19T19:45:13.113Z,93945.09
2023-01-19T19:48:16.676Z,93941.84
2023-01-19T19:51:23.125Z,93945.75
2023-01-19T19:54:26.144Z,93940.88
2023-01-19T19:57:30.186Z,93945.72
2023-01-19T20:00:33.894Z,93935.31
2023-01-19T20:03:37.261Z,93931.16
2023-01-19T20:06:45.205Z,93934.25
2023-01-19T20:09:49.710Z,93924.13
2023-01-19T20:12:52.606Z,93925.13
2023-01-19T20:15:55.822Z,93918.19
2023-01-19T20:18:59.460Z,93923.94
2023-01-19T20:22:03.419Z,93922.28
2023-01-19T20:25:07.790Z,93925.03
2023-01-19T20:28:11.857Z,93926.44
2023-01-19T20:31:15.795Z,93914.88
2023-01-19T20:34:22.199Z,93905.41
2023-01-19T20:37:25.873Z,93908.59
2023-01-19T20:40:29.853Z,93904.47
2023-01-19T20:43:33.487Z,93911.09
2023-01-19T20:46:37.483Z,93899.63
2023-01-19T20:49:41.150Z,93903.63
2023-01-19T20:52:44.370Z,93900.28
2023-01-19T20:55:47.925Z,93906.00
2023-01-19T20:58:51.936Z,93901.44
2023-01-19T21:01:55.809Z,93912.56
2023-01-19T21:04:59.950Z,93896.50
2023-01-19T21:08:03.873Z,93898.69
2023-01-19T21:11:08.957Z,93896.16
2023-01-19T21:14:11.890Z,93897.88
2023-01-19T21:17:15.837Z,93893.03
2023-01-19T21:20:19.897Z,93890.94
2023-01-19T21:23:24.927Z,93880.53
2023-01-19T21:26:32.122Z,93872.91
2023-01-19T21:29:36.152Z,93879.22
2023-01-19T21:32:39.752Z,93877.22
2023-01-19T21:36:03.819Z,93881.03
2023-01-19T21:39:08.620Z,93879.66
2023-01-19T21:42:11.609Z,93876.81
2023-01-19T21:45:14.837Z,93872.75
2023-01-19T21:48:18.301Z,93862.56
2023-01-19T21:51:21.151Z,93861.38
2023-01-19T21:54:24.762Z,93854.50
2023-01-19T21:57:28.009Z,93841.50
2023-01-19T22:00:32.232Z,93840.69
2023-01-19T22:03:36.029Z,93841.59
2023-01-19T22:06:40.081Z,93843.69
2023-01-19T22:09:44.083Z,93847.13
2023-01-19T22:12:47.541Z,93837.94
2023-01-19T22:15:59.518Z,93836.00
2023-01-19T22:19:03.130Z,93840.78
2023-01-19T22:22:06.616Z,93836.84
2023-01-19T22:25:11.241Z,93845.44
2023-01-19T22:28:14.436Z,93855.81
2023-01-19T22:31:19.657Z,93848.16
2023-01-19T22:34:23.406Z,93843.25
2023-01-19T22:37:27.446Z,93841.31
2023-01-19T22:40:31.023Z,93847.00
2023-01-19T22:43:35.088Z,93854.28
2023-01-19T22:46:39.185Z,93854.72
2023-01-19T22:49:43.210Z,93859.81
2023-01-19T22:52:46.751Z,93861.06
2023-01-19T22:55:50.579Z,93846.53
2023-01-19T22:58:54.673Z,93846.47
2023-01-19T23:01:58.842Z,93851.59
2023-01-19T23:05:02.143Z,93848.72
2023-01-19T23:08:06.465Z,93848.59
2023-01-19T23:11:17.094Z,93851.47
2023-01-19T23:14:22.675Z,93851.38
2023-01-19T23:17:25.645Z,93850.13
2023-01-19T23:20:29.295Z,93857.28
2023-01-19T23:23:34.381Z,93853.13
2023-01-19T23:26:41.183Z,93854.78
2023-01-19T23:29:44.647Z,93855.09
2023-01-19T23:32:49.238Z,93862.38
2023-01-19T23:35:52.865Z,93862.31
2023-01-19T23:39:01.285Z,93859.31
2023-01-19T23:42:05.645Z,93856.31
2023-01-19T23:45:10.062Z,93865.53
2023-01-19T23:48:13.688Z,93863.94
2023-01-19T23:51:25.932Z,93870.22
2023-01-19T23:54:28.873Z,93879.25
2023-01-19T23:57:32.409Z,93880.69
